Latest Weather Observations for Ferny Creek

IDV60901

Issued at 6:01 pm EST Thursday 25 August 2016 (issued every 10 minutes, with the page automatically refreshed every 10 minutes)

About weather observations | Map of Melbourne area stations | Latest observations for Melbourne area | Other Formats
Station Details ID: 086266 Name: FERNY CREEK Lat: -37.87 Lon: 145.35 Height: 512.9 m
Data from the previous 72 hours. | See also: Recent months at Ferny Creek
Date/Time
EST
Temp
°C
App
Temp
°C
Dew
Point
°C
Rel
Hum
%
Delta-T
°C
Wind Press
QNH
hPa
Press
MSL
hPa
Rain since
9am
mm
Dir  Spd
km/h
Gust
km/h
Spd
kts
Gust
kts
25/06:00pm 5.5 3.5 4.5 93 0.4 SW 4 11 2 6 1016.1 1016.7 17.0
25/05:30pm 5.1 3.4 3.9 92 0.5 WSW 2 7 1 4 1015.7 1016.3 16.6
25/05:00pm 4.8 2.2 3.3 90 0.6 W 6 9 3 5 1015.2 1015.8 16.6
25/04:30pm 4.5 2.3 3.2 91 0.6 WSW 4 7 2 4 1015.1 1015.7 16.0
25/04:00pm 4.8 1.1 2.3 84 1.0 WSW 11 35 6 19 1015.2 1015.8 13.8
25/03:30pm 8.5 7.0 5.1 79 1.6 SSW 2 6 1 3 1014.6 1015.3 12.2
25/03:00pm 7.4 5.1 4.7 83 1.2 WSW 6 11 3 6 1014.6 1015.3 12.2
25/02:30pm 7.0 4.8 5.3 89 0.8 SW 6 13 3 7 1014.3 1014.9 12.2
25/02:00pm 6.5 4.4 5.6 94 0.4 WSW 6 13 3 7 1014.2 1014.8 12.2
25/01:30pm 4.5 1.9 3.2 91 0.6 W 6 20 3 11 1014.2 1014.8 12.0
25/01:00pm 5.8 3.9 5.1 95 0.3 SW 4 7 2 4 1013.9 1014.5 10.2
25/12:30pm 5.8 3.6 5.1 95 0.3 WSW 6 15 3 8 1014.0 1014.6 10.2
25/12:00pm 4.5 2.3 3.6 94 0.4 WSW 4 7 2 4 1014.0 1014.6 8.6
25/11:30am 4.6 2.3 2.8 88 0.8 WSW 4 9 2 5 1014.3 1014.9 4.6
25/11:00am 6.7 4.4 5.0 89 0.8 W 6 13 3 7 1014.2 1014.8 2.2
25/10:30am 5.6 3.7 5.0 96 0.3 W 4 11 2 6 1014.0 1014.6 2.2
25/10:00am 4.6 2.5 4.0 96 0.3 W 4 9 2 5 1013.8 1014.4 2.2
25/09:30am 3.4 1.1 2.5 94 0.4 W 4 7 2 4 1013.7 1014.3 2.2
25/09:00am 4.2 1.5 3.5 95 0.3 WSW 7 15 4 8 1013.7 1014.3 8.2
25/08:30am 4.2 2.0 3.6 96 0.3 W 4 9 2 5 1013.4 1014.0 8.0
25/08:00am 3.8 2.4 3.4 97 0.2 CALM 0 0 0 0 1013.0 1013.6 7.8
25/07:30am 3.4 1.5 2.8 96 0.2 SE 2 9 1 5 1012.5 1013.1 7.8
25/07:00am 4.2 2.5 3.8 97 0.2 W 2 4 1 2 1012.4 1013.0 6.4
25/06:30am 4.4 2.7 4.0 97 0.2 WSW 2 6 1 3 1012.1 1012.7 6.4
25/06:00am 4.2 2.1 3.8 97 0.2 W 4 9 2 5 1011.8 1012.4 6.2
25/05:30am 4.3 2.2 3.9 97 0.2 W 4 7 2 4 1011.7 1012.3 6.2
25/05:00am 4.3 2.2 3.7 96 0.3 W 4 7 2 4 1011.6 1012.2 5.8
25/04:30am 4.3 2.5 3.7 96 0.3 NW 2 7 1 4 1011.4 1012.0 5.6
25/04:00am 4.0 2.2 3.3 95 0.3 WNW 2 4 1 2 1011.5 1012.1 5.4
25/03:30am 4.0 2.2 3.3 95 0.3 WNW 2 6 1 3 1011.6 1012.2 4.2
25/03:00am 4.2 2.4 3.5 95 0.3 WNW 2 4 1 2 1011.6 1012.2 2.4
25/02:30am 4.6 2.9 3.9 95 0.3 WSW 2 7 1 4 1011.7 1012.3 1.6
25/02:00am 4.7 2.6 4.0 95 0.3 W 4 9 2 5 1011.9 1012.5 1.4
25/01:30am 4.2 2.4 3.3 94 0.4 WSW 2 6 1 3 1012.1 1012.7 1.4
25/01:00am 4.2 2.3 3.0 92 0.5 W 2 4 1 2 1012.2 1012.8 1.4
25/12:30am 4.1 2.2 2.9 92 0.5 SSW 2 6 1 3 1012.2 1012.8 1.4
25/12:00am 4.5 2.2 3.0 90 0.6 W 4 7 2 4 1012.3 1012.9 0.2
 
Date/Time
EST
Temp
°C
App
Temp
°C
Dew
Point
°C
Rel
Hum
%
Delta-T
°C
Wind Press
QNH
hPa
Press
MSL
hPa
Rain since
9am
mm
Dir  Spd
km/h
Gust
km/h
Spd
kts
Gust
kts
24/11:30pm 4.5 2.6 2.7 88 0.8 SW 2 9 1 5 1012.5 1013.1 0.2
24/11:00pm 4.6 2.7 2.8 88 0.8 W 2 9 1 5 1012.7 1013.2 0.2
24/10:30pm 4.5 2.7 3.2 91 0.6 SSE 2 7 1 4 1012.9 1013.5 0.2
24/10:00pm 4.5 3.0 3.0 90 0.6 CALM 0 0 0 0 1013.1 1013.7 0.2
24/09:30pm 5.1 3.8 3.9 92 0.5 CALM 0 2 0 1 1013.3 1013.9 0.2
24/09:00pm 5.2 3.9 4.2 93 0.4 CALM 0 0 0 0 1013.4 1014.0 0.2
24/08:30pm 5.2 3.9 4.2 93 0.4 CALM 0 0 0 0 1013.3 1013.9 0.2
24/08:00pm 5.2 3.1 4.0 92 0.5 SE 4 6 2 3 1013.4 1014.0 0.2
24/07:30pm 5.6 3.6 4.4 92 0.5 ESE 4 9 2 5 1013.3 1013.9 0.0
24/07:00pm 5.7 3.7 4.3 91 0.6 SE 4 7 2 4 1013.2 1013.8 0.0
24/06:30pm 5.7 3.3 4.3 91 0.6 SSE 6 9 3 5 1013.0 1013.6 0.0
24/06:00pm 5.4 3.2 3.6 88 0.8 SSE 4 9 2 5 1012.8 1013.3 0.0
24/05:30pm 5.9 3.4 3.7 86 1.0 S 6 13 3 7 1012.5 1013.1 0.0
24/05:00pm 6.4 4.0 4.1 85 1.0 SSE 6 11 3 6 1012.4 1013.0 0.0
24/04:30pm 7.2 4.6 4.3 82 1.3 S 7 13 4 7 1012.2 1012.8 0.0
24/04:00pm 8.0 5.8 5.1 82 1.3 S 6 9 3 5 1012.2 1012.8 0.0
24/03:30pm 7.8 5.5 4.6 80 1.4 SSE 6 9 3 5 1012.3 1012.9 0.0
24/03:00pm 9.3 7.2 4.1 70 2.4 S 4 11 2 6 1012.2 1012.8 0.0
24/02:30pm 9.8 7.2 4.2 68 2.6 SSW 7 15 4 8 1012.5 1013.1 0.0
24/02:00pm 8.7 6.2 3.5 70 2.3 ESE 6 9 3 5 1012.8 1013.3 0.0
24/01:30pm 9.4 6.5 2.7 63 2.9 SE 7 15 4 8 1013.0 1013.6 0.0
24/01:00pm 9.0 5.8 3.0 66 2.6 E 9 17 5 9 1013.2 1013.8 0.0
24/12:30pm 9.0 5.9 3.6 69 2.4 E 9 13 5 7 1013.4 1014.0 0.0
24/12:00pm 8.2 5.4 3.3 71 2.2 SSE 7 17 4 9 1013.8 1014.4 0.0
24/11:30am 7.9 6.1 5.2 83 1.2 S 4 9 2 5 1014.2 1014.8 0.0
24/11:00am 7.6 5.2 4.2 79 1.5 SE 6 11 3 6 1014.3 1014.9 0.0
24/10:30am 6.8 4.7 4.1 83 1.2 S 4 7 2 4 1014.6 1015.3 0.0
24/10:00am 8.2 5.1 3.7 73 2.0 ENE 9 17 5 9 1014.8 1015.4 0.0
24/09:30am 7.8 5.3 3.5 74 1.9 ENE 6 9 3 5 1014.9 1015.5 0.0
24/09:00am 7.1 4.6 3.9 80 1.4 ENE 6 7 3 4 1015.1 1015.7 0.2
24/08:30am 6.1 3.5 3.4 83 1.2 E 6 9 3 5 1015.2 1015.8 0.2
24/08:00am 4.9 2.3 3.2 89 0.7 ESE 6 9 3 5 1015.1 1015.7 0.2
24/07:30am 3.9 1.3 3.2 95 0.3 ESE 6 9 3 5 1015.2 1015.8 0.2
24/07:00am 3.4 1.5 2.7 95 0.3 SSE 2 7 1 4 1015.3 1015.9 0.2
24/06:30am 3.4 1.5 2.7 95 0.3 SSE 2 6 1 3 1015.3 1015.9 0.2
24/06:00am 3.5 1.2 2.8 95 0.3 SE 4 6 2 3 1015.0 1015.6 0.2
24/05:30am 3.5 1.2 2.8 95 0.3 SE 4 6 2 3 1015.1 1015.7 0.2
24/05:00am 3.8 1.6 3.1 95 0.3 SE 4 9 2 5 1015.0 1015.6 0.0
24/04:30am 3.6 1.3 3.0 96 0.3 SE 4 9 2 5 1015.0 1015.6 0.0
24/04:00am 3.6 1.3 3.0 96 0.3 ESE 4 6 2 3 1015.0 1015.6 0.0
24/03:30am 3.8 1.6 3.2 96 0.3 ESE 4 7 2 4 1015.1 1015.7 0.0
24/03:00am 3.9 1.7 3.2 95 0.3 SE 4 6 2 3 1015.3 1015.9 0.0
24/02:30am 3.6 1.3 2.9 95 0.3 ESE 4 6 2 3 1015.6 1016.2 0.0
24/02:00am 3.8 1.6 3.1 95 0.3 ESE 4 7 2 4 1015.7 1016.3 0.0
24/01:30am 3.5 1.2 2.8 95 0.3 ESE 4 6 2 3 1015.9 1016.5 0.0
24/01:00am 3.7 1.4 3.0 95 0.3 ESE 4 4 2 2 1016.3 1017.0 0.0
24/12:30am 3.8 1.5 2.9 94 0.4 E 4 6 2 3 1016.4 1017.1 0.0
24/12:00am 4.0 1.8 3.3 95 0.3 E 4 6 2 3 1016.6 1017.3 0.0
 
Date/Time
EST
Temp
°C
App
Temp
°C
Dew
Point
°C
Rel
Hum
%
Delta-T
°C
Wind Press
QNH
hPa
Press
MSL
hPa
Rain since
9am
mm
Dir  Spd
km/h
Gust
km/h
Spd
kts
Gust
kts
23/11:30pm 4.0 1.8 3.1 94 0.4 E 4 7 2 4 1016.6 1017.3 0.0
23/11:00pm 3.9 1.6 3.0 94 0.4 ESE 4 6 2 3 1016.6 1017.3 0.0
23/10:30pm 4.1 1.9 3.2 94 0.4 ESE 4 6 2 3 1016.6 1017.3 0.0
23/10:00pm 4.5 2.0 3.6 94 0.4 ESE 6 7 3 4 1016.7 1017.4 0.0
23/09:30pm 4.7 2.6 3.7 93 0.4 ESE 4 7 2 4 1017.0 1017.6 0.0
23/09:00pm 4.7 2.5 3.4 91 0.6 ESE 4 9 2 5 1017.1 1017.7 0.0
23/08:30pm 4.9 2.6 2.9 87 0.8 SE 4 9 2 5 1017.1 1017.7 0.0
23/08:00pm 5.1 2.4 2.5 83 1.1 SE 6 11 3 6 1017.0 1017.6 0.0
23/07:30pm 4.8 2.8 2.3 84 1.0 SSE 2 7 1 4 1017.0 1017.6 0.0
23/07:00pm 5.1 2.9 3.4 89 0.7 S 4 9 2 5 1016.9 1017.5 0.0
23/06:30pm 5.2 2.6 3.4 88 0.8 SSW 6 11 3 6 1016.7 1017.4 0.0
23/06:00pm 5.5 3.3 3.3 86 0.9 SW 4 9 2 5 1016.9 1017.5 0.0
23/05:30pm 6.3 4.1 3.6 83 1.2 SSW 4 6 2 3 1016.9 1017.5 0.0
23/05:00pm 7.4 4.9 4.0 79 1.5 SSW 6 9 3 5 1016.7 1017.4 0.0
23/04:30pm 8.2 6.0 3.5 72 2.1 SSW 4 7 2 4 1016.6 1017.3 0.0
23/04:00pm 9.0 6.4 3.4 68 2.5 SW 6 11 3 6 1016.5 1017.2 0.0
23/03:30pm 8.2 6.4 3.7 73 2.0 SW 2 6 1 3 1016.3 1017.0 0.0
23/03:00pm 8.5 6.2 0.7 58 3.2 SSE 2 6 1 3 1016.0 1016.6 0.0
23/02:30pm 9.9 7.4 1.5 56 3.6 SSE 4 9 2 5 1015.8 1016.4 0.0
23/02:00pm 8.6 5.9 2.6 66 2.6 ESE 6 13 3 7 1015.6 1016.2 0.0
23/01:30pm 8.4 5.6 2.0 64 2.7 ESE 6 9 3 5 1015.7 1016.3 0.0
23/01:00pm 8.3 5.4 1.7 63 2.8 SE 6 9 3 5 1015.7 1016.3 0.0
23/12:30pm 8.1 5.6 1.5 63 2.8 SE 4 9 2 5 1016.0 1016.6 0.0
23/12:00pm 8.4 5.7 2.4 66 2.6 SE 6 11 3 6 1016.1 1016.7 0.0
23/11:30am 9.6 7.0 3.4 65 2.8 ESE 6 11 3 6 1016.4 1017.1 0.0
23/11:00am 8.9 6.1 3.3 68 2.5 ESE 7 17 4 9 1016.7 1017.4 0.0
23/10:30am 8.7 6.1 3.1 68 2.5 SE 6 9 3 5 1017.0 1017.6 0.0
23/10:00am 9.1 7.0 4.1 71 2.3 S 4 9 2 5 1017.1 1017.7 0.0
23/09:30am 8.7 6.6 3.7 71 2.2 S 4 7 2 4 1017.1 1017.7 0.0
23/09:00am 7.9 5.5 2.2 67 2.4 SE 4 6 2 3 1017.0 1017.6 21.0
23/08:30am 6.6 5.6 5.6 93 0.5 CALM 0 0 0 0 1016.9 1017.5 21.0
23/08:00am 4.8 3.2 4.4 97 0.2 ESE 2 4 1 2 1016.7 1017.4 20.8
23/07:30am 4.3 2.6 3.9 97 0.2 ESE 2 4 1 2 1016.4 1017.1 20.8
23/07:00am 5.0 3.4 4.6 97 0.2 ESE 2 6 1 3 1016.0 1016.6 20.8
23/06:30am 5.2 2.9 4.8 97 0.2 ESE 6 9 3 5 1015.8 1016.4 20.8
23/06:00am 5.4 3.5 5.1 98 0.1 SE 4 7 2 4 1015.5 1016.1 20.8
23/05:30am 5.1 3.5 4.7 97 0.2 ESE 2 6 1 3 1015.3 1015.9 20.8
23/05:00am 5.3 3.8 4.9 97 0.2 ESE 2 6 1 3 1015.1 1015.7 20.8
23/04:30am 5.2 3.3 4.8 97 0.2 ESE 4 7 2 4 1014.9 1015.5 20.8
23/04:00am 4.8 2.8 4.4 97 0.2 SE 4 6 2 3 1014.8 1015.4 20.8
23/03:30am 4.8 2.8 4.4 97 0.2 SE 4 6 2 3 1014.5 1015.2 20.8
23/03:00am 5.4 3.5 5.0 97 0.2 ESE 4 7 2 4 1014.6 1015.3 20.8
23/02:30am 5.7 3.5 5.3 97 0.2 ESE 6 9 3 5 1014.8 1015.4 20.8
23/02:00am 5.9 4.1 5.5 97 0.2 ESE 4 7 2 4 1015.0 1015.6 20.8
23/01:30am 6.0 4.2 5.6 97 0.2 ESE 4 6 2 3 1015.2 1015.8 20.8
23/01:00am 5.8 4.3 5.2 96 0.3 ESE 2 4 1 2 1015.3 1015.9 20.8
23/12:30am 5.3 4.1 4.6 95 0.3 CALM 0 0 0 0 1015.2 1015.8 20.6
23/12:00am 5.4 4.2 4.7 95 0.3 CALM 0 0 0 0 1015.2 1015.8 20.6
 
Date/Time
EST
Temp
°C
App
Temp
°C
Dew
Point
°C
Rel
Hum
%
Delta-T
°C
Wind Press
QNH
hPa
Press
MSL
hPa
Rain since
9am
mm
Dir  Spd
km/h
Gust
km/h
Spd
kts
Gust
kts
22/11:30pm 5.4 3.9 4.8 96 0.3 W 2 6 1 3 1015.1 1015.7 20.6
22/11:00pm 5.7 4.2 5.1 96 0.3 WSW 2 4 1 2 1015.2 1015.8 20.6
22/10:30pm 6.0 5.0 5.4 96 0.3 CALM 0 0 0 0 1015.1 1015.7 20.6
22/10:00pm 6.2 4.8 5.6 96 0.3 ESE 2 4 1 2 1015.2 1015.8 19.0
22/09:30pm 6.2 4.8 5.6 96 0.3 ESE 2 4 1 2 1015.2 1015.8 16.4
22/09:00pm 6.6 5.7 6.0 96 0.3 CALM 0 0 0 0 1015.1 1015.7 10.2
22/08:30pm 6.7 5.8 6.1 96 0.3 CALM 0 2 0 1 1014.6 1015.3 9.2
22/08:00pm 6.4 5.4 5.8 96 0.3 CALM 0 0 0 0 1014.4 1015.0 9.2
22/07:30pm 6.2 4.8 5.5 95 0.3 WNW 2 4 1 2 1014.1 1014.7 9.2
22/07:00pm 6.2 4.8 5.5 95 0.3 SW 2 4 1 2 1013.8 1014.4 9.2
22/06:30pm 6.2 5.2 5.5 95 0.3 CALM 0 0 0 0 1013.6 1014.2 9.0

Latest Capital City Observations: Canberra | Sydney | Melbourne | Brisbane | Adelaide | Perth | Hobart | Darwin

Other Formats:

Comma delimited format used in spreadsheet applications
http://www.bom.gov.au/fwo/IDV60901/IDV60901.94872.axf

JavaScript Object Notation format (JSON) in row-major order
http://www.bom.gov.au/fwo/IDV60901/IDV60901.94872.json